Time;durP1;ratioP1;P1;durP2;ratioP2;P2;SDS_P1;SDS_P2;PMS_P1;PMS_P2;Temp;Humidity;BMP_temperature;BMP_pressure;BME280_temperature;BME280_humidity;BME280_pressure;Samples;Min_cycle;Max_cycle;Signal;HPM_P1;HPM_P2
2022/09/16 00:01:53;;;;;;;1.25;0.50;;;15.40;99.90;;;;;;5091996;28;20027;-74
2022/09/16 00:04:19;;;;;;;0.40;0.40;;;15.30;99.90;;;;;;5093208;28;20026;-74
2022/09/16 00:06:45;;;;;;;0.30;0.22;;;15.00;99.90;;;;;;5093029;28;20028;-74
2022/09/16 00:09:11;;;;;;;0.10;0.10;;;14.80;99.90;;;;;;5093213;28;20039;-73
2022/09/16 00:11:36;;;;;;;0.10;0.10;;;14.70;99.90;;;;;;5093063;28;20430;-74
2022/09/16 00:14:03;;;;;;;0.40;0.40;;;14.70;99.90;;;;;;5093010;28;20027;-74
2022/09/16 00:16:29;;;;;;;0.20;0.20;;;14.70;99.90;;;;;;5092807;28;20028;-74
2022/09/16 00:18:57;;;;;;;0.10;0.10;;;14.60;99.90;;;;;;5093039;28;20468;-74
2022/09/16 00:21:24;;;;;;;0.10;0.10;;;14.70;99.90;;;;;;5092554;28;20052;-74
2022/09/16 00:23:50;;;;;;;0.15;0.15;;;14.80;99.90;;;;;;5092823;28;20035;-74
2022/09/16 00:26:16;;;;;;;0.10;0.10;;;15.00;99.90;;;;;;5074557;28;20028;-74
2022/09/16 00:28:42;;;;;;;0.10;0.10;;;15.00;99.90;;;;;;5092757;28;20024;-73
2022/09/16 00:31:08;;;;;;;0.10;0.10;;;15.20;99.90;;;;;;5092632;28;20031;-73
2022/09/16 00:33:34;;;;;;;0.10;0.10;;;15.10;99.90;;;;;;5092635;28;20035;-74
2022/09/16 00:36:09;;;;;;;0.10;0.10;;;15.10;99.90;;;;;;5092445;28;20024;-74
2022/09/16 00:38:35;;;;;;;0.10;0.10;;;15.10;99.90;;;;;;5092901;28;20032;-73
2022/09/16 00:41:01;;;;;;;0.22;0.22;;;15.20;99.90;;;;;;5092483;28;20027;-73
2022/09/16 00:43:27;;;;;;;0.10;0.10;;;15.10;99.90;;;;;;5092452;28;20490;-74
2022/09/16 00:46:01;;;;;;;0.10;0.10;;;15.20;99.90;;;;;;5092387;28;20028;-74
2022/09/16 00:48:31;;;;;;;0.20;0.20;;;15.50;99.90;;;;;;5092556;28;20365;-73
2022/09/16 00:51:05;;;;;;;0.10;0.10;;;15.60;99.90;;;;;;5092403;28;20500;-74
2022/09/16 00:53:39;;;;;;;1.02;0.95;;;15.50;99.90;;;;;;5091145;28;20124;-74
2022/09/16 00:56:08;;;;;;;0.15;0.15;;;15.50;99.90;;;;;;5092235;28;20024;-74
2022/09/16 00:58:42;;;;;;;0.10;0.10;;;15.30;99.90;;;;;;5092309;28;20024;-73
2022/09/16 01:01:08;;;;;;;0.10;0.10;;;15.30;99.90;;;;;;5092214;28;20127;-73
2022/09/16 01:03:41;;;;;;;0.10;0.10;;;15.10;99.90;;;;;;5092191;28;20535;-73
2022/09/16 01:06:10;;;;;;;0.10;0.10;;;15.00;99.90;;;;;;5092053;28;20507;-74
2022/09/16 01:08:36;;;;;;;0.10;0.10;;;15.10;99.90;;;;;;5092269;28;20016;-74
2022/09/16 01:11:02;;;;;;;0.10;0.10;;;15.10;99.90;;;;;;5092124;28;20020;-74
2022/09/16 01:13:28;;;;;;;0.10;0.10;;;15.10;99.90;;;;;;5092099;28;20030;-74
2022/09/16 01:16:13;;;;;;;0.20;0.20;;;15.10;99.90;;;;;;5092009;28;20055;-74
2022/09/16 01:18:46;;;;;;;0.10;0.10;;;15.10;99.90;;;;;;5092108;28;20028;-74
2022/09/16 01:21:30;;;;;;;0.10;0.10;;;15.30;99.90;;;;;;5090357;28;20021;-73
2022/09/16 01:24:21;;;;;;;0.10;0.10;;;15.20;99.90;;;;;;5092050;28;20412;-73
2022/09/16 01:27:12;;;;;;;0.10;0.10;;;15.10;99.90;;;;;;5091901;28;20032;-74
2022/09/16 01:29:57;;;;;;;0.43;0.40;;;15.20;99.90;;;;;;5092031;28;20035;-73
2022/09/16 01:32:50;;;;;;;0.10;0.10;;;15.00;99.90;;;;;;5091875;28;20034;-73
2022/09/16 01:35:43;;;;;;;0.68;0.68;;;14.80;99.90;;;;;;5092062;28;20028;-73
2022/09/16 01:38:49;;;;;;;0.40;0.40;;;14.50;99.90;;;;;;5095008;28;20020;-73
2022/09/16 01:41:45;;;;;;;0.60;0.47;;;14.40;99.90;;;;;;5094667;28;20111;-73
2022/09/16 01:44:29;;;;;;;0.60;0.52;;;14.00;99.90;;;;;;5091201;28;20094;-74
2022/09/16 01:46:54;;;;;;;0.10;0.10;;;14.00;99.90;;;;;;5095688;28;20039;-73
2022/09/16 01:49:35;;;;;;;0.10;0.10;;;14.20;99.90;;;;;;5094610;28;20020;-73
2022/09/16 01:52:27;;;;;;;0.20;0.20;;;14.40;99.90;;;;;;5091537;28;20027;-73
2022/09/16 01:55:03;;;;;;;0.10;0.10;;;14.40;99.90;;;;;;5087112;28;20389;-74
2022/09/16 01:57:38;;;;;;;0.20;0.20;;;14.50;99.90;;;;;;5080029;28;20069;-74
2022/09/16 02:00:09;;;;;;;0.10;0.10;;;14.60;99.90;;;;;;5075556;28;20422;-73
2022/09/16 02:02:41;;;;;;;0.20;0.20;;;14.60;99.90;;;;;;5095702;28;20024;-73
2022/09/16 02:05:20;;;;;;;0.40;0.40;;;14.70;99.90;;;;;;5095311;28;20696;-74
2022/09/16 02:07:56;;;;;;;0.45;0.45;;;15.00;99.90;;;;;;5077590;28;20030;-74
2022/09/16 02:10:32;;;;;;;0.13;0.13;;;15.20;99.90;;;;;;5057247;28;20063;-73
2022/09/16 02:13:27;;;;;;;0.10;0.10;;;15.20;99.90;;;;;;5074953;28;20032;-72
2022/09/16 02:15:57;;;;;;;0.10;0.10;;;15.20;99.90;;;;;;5059453;28;20028;-74
2022/09/16 02:18:28;;;;;;;0.20;0.20;;;15.40;99.90;;;;;;5073550;28;20031;-73
2022/09/16 02:20:56;;;;;;;0.20;0.20;;;15.10;99.90;;;;;;5090201;28;20099;-73
2022/09/16 02:23:28;;;;;;;0.10;0.10;;;14.90;99.90;;;;;;5095169;28;20116;-73
2022/09/16 02:25:55;;;;;;;0.10;0.10;;;14.90;99.90;;;;;;5095008;28;20039;-73
2022/09/16 02:28:27;;;;;;;0.10;0.10;;;14.80;99.90;;;;;;5095027;28;20306;-74
2022/09/16 02:30:54;;;;;;;;;;;14.70;99.90;;;;;;5095655;28;20020;-73
2022/09/16 02:33:23;;;;;;;0.10;0.10;;;14.70;99.90;;;;;;5094818;28;19915;-72
2022/09/16 02:35:53;;;;;;;0.10;0.10;;;14.70;99.90;;;;;;5094721;28;20503;-74
2022/09/16 02:38:44;;;;;;;0.10;0.10;;;14.90;99.90;;;;;;5094906;28;20028;-73
2022/09/16 02:41:13;;;;;;;0.15;0.15;;;15.00;99.90;;;;;;5094836;28;20027;-73
2022/09/16 02:43:40;;;;;;;0.10;0.10;;;15.00;99.90;;;;;;5094842;28;20157;-73
2022/09/16 02:46:30;;;;;;;0.10;0.10;;;14.90;99.90;;;;;;5094539;28;20070;-73
2022/09/16 02:49:17;;;;;;;0.43;0.43;;;14.90;99.90;;;;;;5093957;28;20055;-73
2022/09/16 02:51:57;;;;;;;0.10;0.10;;;14.90;99.90;;;;;;5094669;28;20431;-74
2022/09/16 02:54:42;;;;;;;0.10;0.10;;;14.80;99.90;;;;;;5094583;28;20052;-73
2022/09/16 02:57:09;;;;;;;0.10;0.10;;;14.90;99.90;;;;;;5094394;28;20132;-74
2022/09/16 02:59:36;;;;;;;0.20;0.20;;;14.90;99.90;;;;;;5094455;28;20024;-74
2022/09/16 03:02:01;;;;;;;0.20;0.20;;;14.80;99.90;;;;;;5094489;28;20024;-73
2022/09/16 03:04:28;;;;;;;0.20;0.20;;;14.80;99.90;;;;;;5094418;28;20368;-74
2022/09/16 03:06:54;;;;;;;0.38;0.38;;;14.80;99.90;;;;;;5094207;28;20047;-74
2022/09/16 03:09:23;;;;;;;0.10;0.10;;;14.70;99.90;;;;;;5094670;28;20016;-74
2022/09/16 03:12:21;;;;;;;0.10;0.10;;;14.80;99.90;;;;;;5094278;28;20039;-74
2022/09/16 03:15:08;;;;;;;0.10;0.10;;;14.80;99.90;;;;;;5094251;28;20024;-73
2022/09/16 03:18:05;;;;;;;0.17;0.17;;;14.90;99.90;;;;;;5092743;28;20025;-73
2022/09/16 03:20:36;;;;;;;1.27;0.75;;;14.90;99.90;;;;;;5092836;28;20494;-73
2022/09/16 03:23:39;;;;;;;0.03;0.03;;;14.70;99.90;;;;;;5094022;28;20028;-74
2022/09/16 03:26:44;;;;;;;0.10;0.10;;;14.70;99.90;;;;;;5093944;28;20035;-74
2022/09/16 03:29:28;;;;;;;0.10;0.10;;;14.70;99.90;;;;;;5093554;28;20059;-73
2022/09/16 03:32:17;;;;;;;0.10;0.10;;;14.60;99.90;;;;;;5092729;28;20031;-74
2022/09/16 03:34:54;;;;;;;1.08;1.08;;;14.60;99.90;;;;;;5093927;28;20047;-73
2022/09/16 03:37:22;;;;;;;1.25;0.32;;;14.60;99.90;;;;;;5093861;28;20048;-73
2022/09/16 03:39:54;;;;;;;0.10;0.10;;;14.60;99.90;;;;;;5093720;28;20024;-73
2022/09/16 03:42:21;;;;;;;0.13;0.13;;;14.80;99.90;;;;;;5093653;28;20471;-74
2022/09/16 03:44:47;;;;;;;0.10;0.10;;;14.80;99.90;;;;;;5093714;28;20536;-73
2022/09/16 03:47:14;;;;;;;0.20;0.20;;;14.70;99.90;;;;;;5093471;28;20150;-73
2022/09/16 03:49:40;;;;;;;0.10;0.10;;;14.80;99.90;;;;;;5093669;28;20032;-73
2022/09/16 03:52:07;;;;;;;0.10;0.10;;;14.80;99.90;;;;;;5093431;28;20027;-73
2022/09/16 03:54:34;;;;;;;1.00;1.00;;;14.70;99.90;;;;;;5092315;28;20376;-73
2022/09/16 03:57:00;;;;;;;0.10;0.10;;;14.70;99.90;;;;;;5093288;28;20024;-73
2022/09/16 03:59:27;;;;;;;0.30;0.30;;;14.80;99.90;;;;;;5093073;28;20495;-74
2022/09/16 04:01:53;;;;;;;0.10;0.10;;;14.60;99.90;;;;;;5092087;28;20071;-73
2022/09/16 04:04:19;;;;;;;0.10;0.10;;;14.70;99.90;;;;;;5093186;28;20104;-73
2022/09/16 04:06:44;;;;;;;3.33;1.23;;;14.50;99.90;;;;;;5091648;28;20028;-73
2022/09/16 04:09:11;;;;;;;0.20;0.20;;;14.60;99.90;;;;;;5093210;28;20045;-74
2022/09/16 04:11:38;;;;;;;0.10;0.10;;;14.60;99.90;;;;;;5093030;28;20028;-73
2022/09/16 04:14:05;;;;;;;0.35;0.35;;;14.70;99.90;;;;;;5093021;28;20016;-73
2022/09/16 04:16:31;;;;;;;0.10;0.10;;;14.70;99.90;;;;;;5092331;28;20031;-73
2022/09/16 04:18:57;;;;;;;0.10;0.10;;;14.80;99.90;;;;;;5093061;28;20109;-73
2022/09/16 04:21:23;;;;;;;1.88;0.47;;;14.70;99.90;;;;;;5074823;28;20031;-73
2022/09/16 04:23:49;;;;;;;0.10;0.10;;;14.70;99.90;;;;;;5092855;28;20099;-73
2022/09/16 04:26:16;;;;;;;0.10;0.10;;;14.50;99.90;;;;;;5092636;28;20070;-73
2022/09/16 04:28:41;;;;;;;0.30;0.30;;;14.60;99.90;;;;;;5092924;28;20629;-73
2022/09/16 04:31:10;;;;;;;0.38;0.38;;;14.50;99.90;;;;;;5092692;28;20476;-73
2022/09/16 04:33:37;;;;;;;0.10;0.10;;;14.40;99.90;;;;;;5092725;28;20475;-73
2022/09/16 04:36:12;;;;;;;0.15;0.15;;;14.20;99.90;;;;;;5092525;28;20020;-73
2022/09/16 04:38:43;;;;;;;0.90;0.90;;;14.20;99.90;;;;;;5091280;28;20024;-73
2022/09/16 04:41:12;;;;;;;0.50;0.50;;;14.20;99.90;;;;;;5092579;28;20088;-73
2022/09/16 04:43:38;;;;;;;0.10;0.10;;;14.20;99.90;;;;;;5092436;28;20098;-73
2022/09/16 04:46:05;;;;;;;0.20;0.20;;;14.20;99.90;;;;;;5092314;28;20020;-73
2022/09/16 04:48:31;;;;;;;0.75;0.73;;;14.20;99.90;;;;;;5092509;28;20024;-73
2022/09/16 04:51:08;;;;;;;0.10;0.10;;;14.20;99.90;;;;;;5091190;28;20107;-74
2022/09/16 04:53:35;;;;;;;0.20;0.20;;;14.10;99.90;;;;;;5092323;28;20095;-73
2022/09/16 04:56:20;;;;;;;0.15;0.15;;;14.20;99.90;;;;;;5092090;28;20020;-73
2022/09/16 04:58:48;;;;;;;2.22;1.08;;;14.10;99.90;;;;;;5092346;28;20380;-73
2022/09/16 05:01:20;;;;;;;0.20;0.20;;;14.00;99.90;;;;;;5092319;28;20043;-74
2022/09/16 05:03:48;;;;;;;0.35;0.35;;;13.90;99.90;;;;;;5092201;28;20025;-74
2022/09/16 05:06:17;;;;;;;0.10;0.10;;;14.00;99.90;;;;;;5092137;28;20474;-73
2022/09/16 05:08:43;;;;;;;0.10;0.10;;;14.00;99.90;;;;;;5090916;28;20016;-72
2022/09/16 05:11:13;;;;;;;0.10;0.10;;;14.20;99.90;;;;;;5091406;28;20496;-73
2022/09/16 05:13:39;;;;;;;0.10;0.10;;;14.30;99.90;;;;;;5090760;28;20026;-73
2022/09/16 05:16:08;;;;;;;0.20;0.20;;;14.40;99.90;;;;;;5090208;28;20078;-73
2022/09/16 05:18:34;;;;;;;0.30;0.30;;;14.30;99.90;;;;;;5092006;28;20016;-73
2022/09/16 05:21:03;;;;;;;0.40;0.40;;;14.20;99.90;;;;;;5090766;28;20392;-73
2022/09/16 05:23:30;;;;;;;0.43;0.43;;;14.10;99.90;;;;;;5091954;28;20024;-73
2022/09/16 05:26:03;;;;;;;2.55;1.27;;;14.00;99.90;;;;;;5090537;28;20020;-73
2022/09/16 05:28:28;;;;;;;0.80;0.80;;;14.00;99.90;;;;;;5090653;28;20490;-73
2022/09/16 05:30:54;;;;;;;0.65;0.45;;;13.90;99.90;;;;;;5091750;28;20047;-73
2022/09/16 05:33:20;;;;;;;0.52;0.45;;;14.00;99.90;;;;;;5090569;28;20099;-73
2022/09/16 05:35:45;;;;;;;4.03;0.73;;;14.10;99.90;;;;;;5088317;28;20068;-73
2022/09/16 05:38:12;;;;;;;0.10;0.10;;;14.00;99.90;;;;;;5077248;28;20024;-73
2022/09/16 05:40:38;;;;;;;0.55;0.55;;;14.00;99.90;;;;;;5088579;28;20105;-73
2022/09/16 05:43:04;;;;;;;0.40;0.40;;;13.90;99.90;;;;;;5090477;28;20028;-73
2022/09/16 05:45:30;;;;;;;4.13;1.02;;;13.90;99.90;;;;;;5090178;28;20043;-74
2022/09/16 05:47:56;;;;;;;0.38;0.38;;;13.90;99.90;;;;;;5091861;28;20022;-73
2022/09/16 05:50:21;;;;;;;2.08;1.88;;;14.00;99.90;;;;;;5090279;28;20032;-73
2022/09/16 05:52:48;;;;;;;0.10;0.10;;;14.00;99.90;;;;;;5079642;28;20040;-73
2022/09/16 05:55:14;;;;;;;1.40;1.00;;;14.00;99.90;;;;;;5071236;28;20017;-73
2022/09/16 05:57:39;;;;;;;0.38;0.32;;;14.20;99.90;;;;;;5071456;28;20028;-73
2022/09/16 06:00:06;;;;;;;0.10;0.10;;;14.30;99.90;;;;;;5071567;28;20043;-73
2022/09/16 06:02:32;;;;;;;2.65;1.30;;;14.20;99.90;;;;;;5071323;28;20229;-73
2022/09/16 06:04:58;;;;;;;0.30;0.30;;;14.20;99.90;;;;;;5069474;28;20029;-73
2022/09/16 06:07:24;;;;;;;0.90;0.90;;;14.10;99.90;;;;;;5068024;28;20036;-73
2022/09/16 06:09:50;;;;;;;0.10;0.10;;;14.10;99.90;;;;;;5051774;28;20024;-73
2022/09/16 06:12:15;;;;;;;0.10;0.10;;;14.10;99.90;;;;;;5068000;28;20029;-73
2022/09/16 06:14:41;;;;;;;0.17;0.13;;;14.20;99.90;;;;;;5069493;28;20021;-73
2022/09/16 06:17:07;;;;;;;0.95;0.93;;;14.20;99.90;;;;;;5069028;28;20380;-73
2022/09/16 06:19:32;;;;;;;0.10;0.10;;;14.20;99.90;;;;;;5071228;28;20029;-73
2022/09/16 06:21:58;;;;;;;0.10;0.10;;;14.30;99.90;;;;;;5072682;28;20108;-72
2022/09/16 06:24:24;;;;;;;1.42;1.33;;;14.50;99.90;;;;;;5074759;28;20043;-73
2022/09/16 06:26:50;;;;;;;4.05;0.63;;;14.60;99.90;;;;;;5074587;28;20021;-73
2022/09/16 06:29:16;;;;;;;0.10;0.10;;;14.60;99.90;;;;;;5074753;28;20029;-73
2022/09/16 06:31:42;;;;;;;1.30;1.20;;;14.50;99.90;;;;;;5074562;28;20024;-73
2022/09/16 06:34:13;;;;;;;0.45;0.45;;;14.50;99.90;;;;;;5073233;28;20020;-73
2022/09/16 06:36:39;;;;;;;0.63;0.63;;;14.60;99.90;;;;;;5072024;28;20483;-73
2022/09/16 06:39:05;;;;;;;0.20;0.20;;;14.60;99.90;;;;;;5078853;28;20078;-72
2022/09/16 06:41:32;;;;;;;0.30;0.30;;;14.70;99.90;;;;;;5088190;28;20040;-73
2022/09/16 06:43:58;;;;;;;1.45;0.57;;;14.70;99.90;;;;;;5085561;28;20372;-73
2022/09/16 06:46:27;;;;;;;6.50;1.27;;;14.70;99.90;;;;;;5075551;28;20035;-73
2022/09/16 06:48:55;;;;;;;0.85;0.85;;;14.60;99.90;;;;;;5073621;28;20381;-73
2022/09/16 06:51:24;;;;;;;0.10;0.10;;;14.60;99.90;;;;;;5083681;28;20602;-73
2022/09/16 06:53:51;;;;;;;0.88;0.85;;;14.60;99.90;;;;;;5092345;28;20107;-73
2022/09/16 06:56:19;;;;;;;2.40;1.30;;;14.60;99.90;;;;;;5093792;28;20103;-73
2022/09/16 06:58:47;;;;;;;0.10;0.10;;;14.50;99.90;;;;;;5094443;28;20026;-72
2022/09/16 07:01:16;;;;;;;0.32;0.32;;;14.50;99.90;;;;;;5093978;28;20103;-71
2022/09/16 07:03:44;;;;;;;0.10;0.10;;;14.60;99.90;;;;;;5088037;28;20017;-72
2022/09/16 07:06:11;;;;;;;0.10;0.10;;;14.90;99.90;;;;;;5094162;28;20472;-71
2022/09/16 07:08:38;;;;;;;0.10;0.10;;;15.00;99.90;;;;;;5093756;28;20080;-72
2022/09/16 07:11:19;;;;;;;0.30;0.30;;;15.20;99.90;;;;;;5093939;28;20024;-71
2022/09/16 07:13:46;;;;;;;0.53;0.53;;;15.50;99.90;;;;;;5093799;28;20077;-71
2022/09/16 07:16:15;;;;;;;0.10;0.10;;;15.20;99.90;;;;;;5093625;28;20063;-71
2022/09/16 07:18:42;;;;;;;0.75;0.75;;;15.20;99.90;;;;;;5093882;28;20555;-72
2022/09/16 07:21:14;;;;;;;0.10;0.10;;;15.20;99.90;;;;;;5093829;28;20383;-71
2022/09/16 07:23:41;;;;;;;0.10;0.10;;;15.30;99.90;;;;;;5093614;28;20013;-71
2022/09/16 07:26:09;;;;;;;0.10;0.10;;;15.40;99.90;;;;;;5093575;28;20103;-72
2022/09/16 07:28:36;;;;;;;1.08;1.08;;;15.30;99.90;;;;;;5091345;28;20016;-71
2022/09/16 07:31:04;;;;;;;0.10;0.10;;;15.40;99.90;;;;;;5092344;28;20108;-71
2022/09/16 07:33:33;;;;;;;1.23;1.05;;;15.40;99.90;;;;;;5092495;28;20483;-71
2022/09/16 07:36:00;;;;;;;0.95;0.40;;;15.20;99.90;;;;;;5092998;28;20028;-72
2022/09/16 07:38:27;;;;;;;0.10;0.10;;;15.30;99.90;;;;;;5093332;28;20428;-72
2022/09/16 07:40:53;;;;;;;0.73;0.73;;;15.40;99.90;;;;;;5093254;28;20102;-73
2022/09/16 07:43:19;;;;;;;0.10;0.10;;;15.60;99.90;;;;;;5093231;28;20020;-72
2022/09/16 07:45:45;;;;;;;0.65;0.65;;;15.80;99.90;;;;;;5073985;28;20056;-73
2022/09/16 07:48:11;;;;;;;0.52;0.52;;;15.80;99.90;;;;;;5071228;28;20472;-71
2022/09/16 07:50:36;;;;;;;0.15;0.15;;;15.70;99.90;;;;;;5071362;28;20035;-72
2022/09/16 07:53:03;;;;;;;0.10;0.10;;;15.80;99.90;;;;;;5072676;28;20024;-72
2022/09/16 07:55:29;;;;;;;0.10;0.10;;;15.80;99.90;;;;;;5072571;28;20091;-73
2022/09/16 07:57:55;;;;;;;0.20;0.20;;;15.90;99.90;;;;;;5072641;28;20021;-72
2022/09/16 08:00:21;;;;;;;0.30;0.30;;;16.10;99.90;;;;;;5072949;28;20021;-72
2022/09/16 08:02:46;;;;;;;0.08;0.08;;;16.10;99.90;;;;;;5072535;28;20043;-73
2022/09/16 08:05:12;;;;;;;0.10;0.10;;;16.30;99.90;;;;;;5072508;28;20025;-72
2022/09/16 08:07:38;;;;;;;0.10;0.10;;;16.30;99.90;;;;;;5072055;28;20071;-72
2022/09/16 08:10:04;;;;;;;0.20;0.20;;;16.50;99.90;;;;;;5072573;28;20029;-72
2022/09/16 08:12:32;;;;;;;0.10;0.10;;;16.50;99.90;;;;;;5072241;28;20028;-72
2022/09/16 08:14:59;;;;;;;0.10;0.10;;;16.50;99.90;;;;;;5070369;28;20024;-72
2022/09/16 08:17:25;;;;;;;0.10;0.10;;;16.50;99.90;;;;;;5072456;28;20059;-72
2022/09/16 08:19:51;;;;;;;0.30;0.30;;;16.50;99.90;;;;;;5072550;28;20024;-73
2022/09/16 08:22:17;;;;;;;0.10;0.10;;;16.30;99.90;;;;;;5072226;28;20369;-71
2022/09/16 08:24:43;;;;;;;0.10;0.10;;;16.40;99.90;;;;;;5072384;28;20099;-72
2022/09/16 08:27:08;;;;;;;1.50;0.55;;;16.50;99.90;;;;;;5071298;28;20491;-72
2022/09/16 08:29:34;;;;;;;0.10;0.10;;;16.60;99.90;;;;;;5072260;28;20058;-72
2022/09/16 08:32:00;;;;;;;0.63;0.63;;;16.70;99.90;;;;;;5071383;28;20020;-72
2022/09/16 08:34:26;;;;;;;0.20;0.20;;;16.60;99.90;;;;;;5072024;28;20082;-71
2022/09/16 08:36:52;;;;;;;0.20;0.20;;;16.30;99.90;;;;;;5070589;28;20411;-72
2022/09/16 08:39:18;;;;;;;0.35;0.30;;;16.50;99.90;;;;;;5071770;28;20013;-72
2022/09/16 08:42:12;;;;;;;0.73;0.73;;;16.70;99.90;;;;;;5071350;28;20108;-72
2022/09/16 08:44:49;;;;;;;0.13;0.13;;;16.50;99.90;;;;;;5070281;28;20392;-72
2022/09/16 08:47:45;;;;;;;0.10;0.10;;;16.90;99.90;;;;;;5071203;28;20524;-72
2022/09/16 08:50:24;;;;;;;0.40;0.40;;;17.40;99.90;;;;;;5071809;28;20024;-72
2022/09/16 08:52:55;;;;;;;0.10;0.10;;;17.60;99.90;;;;;;5071818;28;20074;-72
2022/09/16 08:55:30;;;;;;;0.10;0.10;;;17.80;99.90;;;;;;5071853;28;20029;-72
2022/09/16 08:58:08;;;;;;;0.08;0.08;;;17.60;99.90;;;;;;5071925;28;20635;-72
2022/09/16 09:00:36;;;;;;;0.43;0.43;;;17.90;99.90;;;;;;5071901;28;20017;-72
2022/09/16 09:03:26;;;;;;;0.10;0.10;;;17.80;99.90;;;;;;5071909;28;20590;-72
2022/09/16 09:05:57;;;;;;;0.10;0.10;;;17.80;99.90;;;;;;5070734;28;20029;-72
2022/09/16 09:08:49;;;;;;;0.00;0.00;;;18.10;99.90;;;;;;5071440;28;20029;-72
2022/09/16 09:11:43;;;;;;;0.10;0.10;;;18.50;99.90;;;;;;5071051;28;20028;-72
2022/09/16 09:14:26;;;;;;;0.88;0.70;;;18.70;99.90;;;;;;5070906;28;20099;-72
2022/09/16 09:16:58;;;;;;;0.95;0.95;;;18.50;99.90;;;;;;5070812;28;20021;-72
2022/09/16 09:19:33;;;;;;;0.10;0.10;;;18.10;99.90;;;;;;5071665;28;20028;-72
2022/09/16 09:22:19;;;;;;;0.13;0.13;;;17.80;99.90;;;;;;5071514;28;20155;-71
2022/09/16 09:25:13;;;;;;;0.10;0.10;;;17.50;99.90;;;;;;5071445;28;20028;-72
2022/09/16 09:27:55;;;;;;;0.08;0.08;;;17.50;99.90;;;;;;5071579;28;20031;-72
2022/09/16 09:30:29;;;;;;;0.10;0.10;;;17.50;99.90;;;;;;5070877;28;20043;-72
2022/09/16 09:33:24;;;;;;;1.27;0.52;;;17.60;99.90;;;;;;5070164;28;20035;-72
2022/09/16 09:36:12;;;;;;;0.20;0.20;;;17.40;99.90;;;;;;5071343;28;20024;-71
2022/09/16 09:38:57;;;;;;;0.30;0.30;;;17.10;99.90;;;;;;5070851;28;20025;-72
2022/09/16 09:41:30;;;;;;;0.30;0.30;;;17.30;99.90;;;;;;5069991;28;20033;-72
2022/09/16 09:44:25;;;;;;;0.10;0.10;;;17.20;99.90;;;;;;5070467;28;20074;-72
2022/09/16 09:46:58;;;;;;;2.25;0.82;;;17.00;99.90;;;;;;5071164;28;20024;-72
2022/09/16 09:49:36;;;;;;;0.40;0.40;;;16.80;99.90;;;;;;5069982;28;20096;-73
2022/09/16 09:52:11;;;;;;;0.63;0.63;;;16.90;99.90;;;;;;5071118;28;20033;-73
2022/09/16 09:54:40;;;;;;;1.25;0.85;;;16.90;99.90;;;;;;5070663;28;20107;-73
2022/09/16 09:57:11;;;;;;;0.10;0.10;;;17.10;99.90;;;;;;5072694;28;20028;-74
2022/09/16 09:59:49;;;;;;;4.60;1.55;;;17.10;99.90;;;;;;5075081;28;20031;-73
2022/09/16 10:02:18;;;;;;;0.10;0.10;;;16.90;99.90;;;;;;5075129;28;20044;-74
2022/09/16 10:04:44;;;;;;;0.10;0.10;;;16.90;99.90;;;;;;5075045;28;20051;-74
2022/09/16 10:07:16;;;;;;;0.20;0.20;;;17.10;99.90;;;;;;5078776;28;20020;-74
2022/09/16 10:10:12;;;;;;;0.57;0.57;;;17.10;99.90;;;;;;5093812;28;20024;-74
2022/09/16 10:12:37;;;;;;;0.10;0.10;;;17.10;99.90;;;;;;5094936;28;20016;-74
2022/09/16 10:15:03;;;;;;;0.20;0.20;;;17.00;99.90;;;;;;5095011;28;20745;-74
2022/09/16 10:17:31;;;;;;;0.20;0.20;;;17.20;99.90;;;;;;5094289;28;20385;-74
2022/09/16 10:20:18;;;;;;;0.32;0.32;;;17.10;99.90;;;;;;5095430;28;20031;-73
2022/09/16 10:23:03;;;;;;;0.10;0.10;;;17.10;99.90;;;;;;5094682;28;20035;-76
2022/09/16 10:25:31;;;;;;;0.80;0.77;;;17.30;99.90;;;;;;5093472;28;20388;-74
2022/09/16 10:28:00;;;;;;;5.05;1.55;;;17.20;99.90;;;;;;5095248;28;20241;-74
2022/09/16 10:30:28;;;;;;;2.60;1.10;;;17.20;99.90;;;;;;5093502;28;20028;-73
2022/09/16 10:33:00;;;;;;;0.10;0.10;;;17.20;99.90;;;;;;5092853;28;20020;-73
2022/09/16 10:35:28;;;;;;;0.10;0.10;;;17.10;99.90;;;;;;5091971;28;20020;-74
2022/09/16 10:38:15;;;;;;;0.10;0.10;;;17.10;99.90;;;;;;5073056;28;20503;-74
2022/09/16 10:40:52;;;;;;;0.10;0.10;;;16.90;99.90;;;;;;5073936;28;20024;-74
2022/09/16 10:43:20;;;;;;;0.20;0.20;;;16.90;99.90;;;;;;5076160;28;20032;-73
2022/09/16 10:45:49;;;;;;;0.30;0.30;;;17.00;99.90;;;;;;5091983;28;20025;-73
2022/09/16 10:48:18;;;;;;;0.20;0.20;;;17.10;99.90;;;;;;5094386;28;20031;-73
2022/09/16 10:50:58;;;;;;;0.30;0.30;;;17.20;99.90;;;;;;5094619;28;20113;-73
2022/09/16 10:53:32;;;;;;;1.95;0.65;;;17.20;99.90;;;;;;5093122;28;20032;-74
2022/09/16 10:56:01;;;;;;;0.10;0.10;;;17.00;99.90;;;;;;5073763;28;20029;-74
2022/09/16 10:58:27;;;;;;;0.10;0.10;;;16.90;99.90;;;;;;5073991;28;20059;-74
2022/09/16 11:01:05;;;;;;;0.08;0.08;;;16.90;99.90;;;;;;5073974;28;20495;-74
2022/09/16 11:04:05;;;;;;;0.45;0.45;;;16.80;99.90;;;;;;5072638;28;20028;-74
2022/09/16 11:06:53;;;;;;;0.10;0.10;;;17.10;99.90;;;;;;5072499;28;20055;-74
2022/09/16 11:09:42;;;;;;;5.35;1.98;;;17.50;99.90;;;;;;5072725;28;20056;-74
2022/09/16 11:12:27;;;;;;;1.00;1.00;;;17.70;99.90;;;;;;5073506;28;20024;-75
2022/09/16 11:14:56;;;;;;;0.38;0.17;;;18.50;99.90;;;;;;5072401;28;20025;-74
2022/09/16 11:17:33;;;;;;;0.47;0.47;;;19.20;99.90;;;;;;5073486;28;20048;-74
2022/09/16 11:20:27;;;;;;;0.30;0.30;;;19.10;99.90;;;;;;5078045;28;20013;-74
2022/09/16 11:23:12;;;;;;;3.10;1.23;;;18.90;99.90;;;;;;5079046;28;20027;-73
2022/09/16 11:25:41;;;;;;;0.20;0.20;;;18.80;99.90;;;;;;5092109;28;20387;-73
2022/09/16 11:28:19;;;;;;;0.10;0.10;;;19.10;99.90;;;;;;5079599;28;20115;-74
2022/09/16 11:31:08;;;;;;;1.83;1.73;;;19.40;99.90;;;;;;5072177;28;20024;-74
2022/09/16 11:34:12;;;;;;;4.07;2.92;;;19.80;99.90;;;;;;5071796;28;20419;-74
2022/09/16 11:37:14;;;;;;;0.40;0.35;;;18.90;99.90;;;;;;5086763;28;20051;-74
2022/09/16 11:39:45;;;;;;;;;;;18.90;99.90;;;;;;5092264;28;20124;-74
2022/09/16 11:42:37;;;;;;;0.40;0.40;;;18.70;99.90;;;;;;5092089;28;19908;-74
2022/09/16 11:45:22;;;;;;;0.10;0.10;;;18.60;99.90;;;;;;5076095;28;20400;-74
2022/09/16 11:47:56;;;;;;;0.93;0.93;;;18.30;99.90;;;;;;5093434;28;20044;-74
2022/09/16 11:50:37;;;;;;;1.23;0.93;;;18.40;99.90;;;;;;5093191;28;20028;-76
2022/09/16 11:53:25;;;;;;;0.10;0.10;;;18.20;99.90;;;;;;5084530;28;20067;-74
2022/09/16 11:56:20;;;;;;;0.10;0.10;;;18.70;99.90;;;;;;5072686;28;20426;-73
2022/09/16 11:58:55;;;;;;;0.10;0.10;;;18.80;99.90;;;;;;5072598;28;20021;-71
2022/09/16 12:01:43;;;;;;;0.38;0.38;;;18.70;99.90;;;;;;5072386;28;20108;-72
2022/09/16 12:04:18;;;;;;;0.10;0.10;;;18.60;99.90;;;;;;5072619;28;20048;-72
2022/09/16 12:07:20;;;;;;;0.30;0.30;;;18.30;99.90;;;;;;5071922;28;20108;-72
2022/09/16 12:10:00;;;;;;;0.38;0.38;;;18.70;99.90;;;;;;5060663;28;20119;-72
2022/09/16 12:12:39;;;;;;;0.43;0.43;;;19.00;99.90;;;;;;5071017;28;20032;-73
2022/09/16 12:15:38;;;;;;;0.17;0.17;;;19.20;99.90;;;;;;5071124;28;20039;-72
2022/09/16 12:18:12;;;;;;;1.15;0.95;;;18.80;99.90;;;;;;5070210;28;20040;-74
2022/09/16 12:20:44;;;;;;;0.57;0.52;;;18.90;99.90;;;;;;5071651;28;20759;-72
2022/09/16 12:23:39;;;;;;;0.10;0.10;;;18.30;99.90;;;;;;5072284;28;20107;-73
2022/09/16 12:26:24;;;;;;;0.10;0.10;;;17.10;99.90;;;;;;5070162;28;20044;-73
2022/09/16 12:28:55;;;;;;;0.50;0.50;;;16.50;99.90;;;;;;5072014;28;20050;-71
2022/09/16 12:31:37;;;;;;;0.30;0.30;;;16.10;99.90;;;;;;5072092;28;20488;-73
2022/09/16 12:34:20;;;;;;;0.20;0.20;;;16.00;99.90;;;;;;5071686;28;20025;-72
2022/09/16 12:37:01;;;;;;;0.60;0.60;;;15.60;99.90;;;;;;5071600;28;20031;-71
2022/09/16 12:39:27;;;;;;;0.55;0.55;;;15.30;99.90;;;;;;5071778;28;20027;-72
2022/09/16 12:42:38;;;;;;;0.10;0.10;;;15.20;99.90;;;;;;5071878;28;20029;-72
2022/09/16 12:45:14;;;;;;;1.15;0.82;;;14.90;99.90;;;;;;5071459;28;20548;-72
2022/09/16 12:47:46;;;;;;;0.93;0.52;;;14.60;99.90;;;;;;5071817;28;20032;-73
2022/09/16 12:50:56;;;;;;;2.05;0.60;;;14.50;99.90;;;;;;5071674;28;20025;-73
2022/09/16 12:53:33;;;;;;;0.20;0.20;;;14.60;99.90;;;;;;5020355;28;20135;-73
2022/09/16 12:56:05;;;;;;;0.98;0.82;;;15.00;99.90;;;;;;5070023;28;20103;-72
2022/09/16 12:58:33;;;;;;;0.47;0.47;;;15.00;99.90;;;;;;5071756;28;20028;-73
2022/09/16 13:01:21;;;;;;;0.73;0.73;;;15.00;99.90;;;;;;5072269;28;20522;-73
2022/09/16 13:03:55;;;;;;;0.68;0.68;;;14.80;99.90;;;;;;5071541;28;20025;-73
2022/09/16 13:06:24;;;;;;;0.98;0.85;;;14.80;99.90;;;;;;5070353;28;20103;-73
2022/09/16 13:08:51;;;;;;;0.30;0.30;;;14.60;99.90;;;;;;5071480;28;20472;-73
2022/09/16 13:11:22;;;;;;;0.63;0.63;;;14.60;99.90;;;;;;5070237;28;20016;-73
2022/09/16 13:13:52;;;;;;;0.20;0.20;;;14.60;99.90;;;;;;5070328;28;20035;-72
2022/09/16 13:16:35;;;;;;;1.17;0.45;;;14.60;99.90;;;;;;5071299;28;20643;-73
2022/09/16 13:19:33;;;;;;;0.10;0.10;;;14.60;99.90;;;;;;5071530;28;20017;-72
2022/09/16 13:22:13;;;;;;;0.10;0.10;;;14.70;99.90;;;;;;5070225;28;20073;-72